createdAt,value
2018-07-01T00:01:37.646Z,54.00
2018-07-01T00:04:06.114Z,54.20
2018-07-01T00:06:34.637Z,54.20
2018-07-01T00:09:03.156Z,54.10
2018-07-01T00:11:31.707Z,54.40
2018-07-01T00:14:00.238Z,54.40
2018-07-01T00:16:28.668Z,54.30
2018-07-01T00:18:57.190Z,54.30
2018-07-01T00:21:25.722Z,55.50
2018-07-01T00:23:54.105Z,54.90
2018-07-01T00:26:22.765Z,54.90
2018-07-01T00:28:51.223Z,55.10
2018-07-01T00:31:19.632Z,55.20
2018-07-01T00:33:48.002Z,55.20
2018-07-01T00:36:16.379Z,55.80
2018-07-01T00:38:44.789Z,56.00
2018-07-01T00:41:13.209Z,55.70
2018-07-01T00:43:41.624Z,55.60
2018-07-01T00:46:10.061Z,55.70
2018-07-01T00:51:06.535Z,55.40
2018-07-01T00:53:34.924Z,55.70
2018-07-01T00:56:03.312Z,55.60
2018-07-01T00:58:32.132Z,56.00
2018-07-01T01:01:02.086Z,56.30
2018-07-01T01:03:30.780Z,56.80
2018-07-01T01:05:59.211Z,56.40
2018-07-01T01:08:27.730Z,56.80
2018-07-01T01:10:56.145Z,56.70
2018-07-01T01:13:24.598Z,56.40
2018-07-01T01:15:53.145Z,56.80
2018-07-01T01:18:24.560Z,57.20
2018-07-01T01:20:52.950Z,57.40
2018-07-01T01:23:21.417Z,57.00
2018-07-01T01:25:49.777Z,56.90
2018-07-01T01:28:18.201Z,57.10
2018-07-01T01:30:46.766Z,57.50
2018-07-01T01:33:15.178Z,57.10
2018-07-01T01:35:43.759Z,57.20
2018-07-01T01:38:12.383Z,57.80
2018-07-01T01:40:45.380Z,58.40
2018-07-01T01:43:18.336Z,58.60
2018-07-01T01:45:53.689Z,57.80
2018-07-01T01:51:02.273Z,57.90
2018-07-01T01:53:38.588Z,57.90
2018-07-01T01:56:12.728Z,58.00
2018-07-01T01:58:49.265Z,58.20
2018-07-01T02:01:33.895Z,58.30
2018-07-01T02:04:06.808Z,58.30
2018-07-01T02:06:59.970Z,58.40
2018-07-01T02:09:35.305Z,58.30
2018-07-01T02:14:57.072Z,58.50
2018-07-01T02:17:31.627Z,58.60
2018-07-01T02:20:03.233Z,58.70
2018-07-01T02:22:52.395Z,59.00
2018-07-01T02:25:23.412Z,58.80
2018-07-01T02:27:51.856Z,59.10
2018-07-01T02:30:20.197Z,59.40
2018-07-01T02:32:48.778Z,60.10
2018-07-01T02:35:17.257Z,60.40
2018-07-01T02:37:45.799Z,61.10
2018-07-01T02:40:14.179Z,61.20
2018-07-01T02:42:42.845Z,60.70
2018-07-01T02:45:11.277Z,60.10
2018-07-01T02:47:39.649Z,59.90
2018-07-01T02:50:08.141Z,60.20
2018-07-01T02:52:37.229Z,60.10
2018-07-01T02:55:05.685Z,60.30
2018-07-01T02:57:34.089Z,60.80
2018-07-01T03:00:02.531Z,60.80
2018-07-01T03:02:30.923Z,60.90
2018-07-01T03:04:59.290Z,61.00
2018-07-01T03:07:27.674Z,61.30
2018-07-01T03:09:55.992Z,60.90
2018-07-01T03:12:24.398Z,61.00
2018-07-01T03:14:52.863Z,61.00
2018-07-01T03:17:21.213Z,61.00
2018-07-01T03:19:49.678Z,61.30
2018-07-01T03:22:18.092Z,61.10
2018-07-01T03:24:46.425Z,61.20
2018-07-01T03:27:14.808Z,61.30
2018-07-01T03:29:43.199Z,61.60
2018-07-01T03:32:11.738Z,62.00
2018-07-01T03:34:40.113Z,62.00
2018-07-01T03:37:08.476Z,63.00
2018-07-01T03:39:36.884Z,63.10
2018-07-01T03:42:16.864Z,63.00
2018-07-01T03:44:45.401Z,62.70
2018-07-01T03:47:19.261Z,63.20
2018-07-01T03:49:47.765Z,62.90
2018-07-01T03:52:16.313Z,63.20
2018-07-01T03:54:44.899Z,63.70
2018-07-01T03:57:13.328Z,64.00
2018-07-01T03:59:41.822Z,63.60
2018-07-01T04:02:10.431Z,63.00
2018-07-01T04:04:38.886Z,63.30
2018-07-01T04:07:07.350Z,62.80
2018-07-01T04:09:35.774Z,63.10
2018-07-01T04:12:04.154Z,63.00
2018-07-01T04:14:32.816Z,62.70
2018-07-01T04:17:01.216Z,62.40
2018-07-01T04:19:34.029Z,62.50
2018-07-01T04:22:02.536Z,62.70
2018-07-01T04:24:31.387Z,63.20
2018-07-01T04:27:00.366Z,63.70
2018-07-01T04:29:29.323Z,64.30
2018-07-01T04:31:58.049Z,63.20
2018-07-01T04:34:26.550Z,63.80
2018-07-01T04:36:55.090Z,63.40
2018-07-01T04:39:23.651Z,63.00
2018-07-01T04:41:52.138Z,62.70
2018-07-01T04:44:27.220Z,62.90
2018-07-01T04:49:27.100Z,63.70
2018-07-01T04:51:55.501Z,62.90
2018-07-01T04:54:23.875Z,62.70
2018-07-01T04:56:52.358Z,62.50
2018-07-01T04:59:20.803Z,62.50
2018-07-01T05:01:49.218Z,64.70
2018-07-01T05:04:17.770Z,63.50
2018-07-01T05:06:46.182Z,62.50
2018-07-01T05:09:14.844Z,61.60
2018-07-01T05:11:43.800Z,61.70
2018-07-01T05:14:12.569Z,61.30
2018-07-01T05:16:41.101Z,61.30
2018-07-01T05:19:09.984Z,61.00
2018-07-01T05:21:38.360Z,60.80
2018-07-01T05:24:06.924Z,59.80
2018-07-01T05:26:35.337Z,59.00
2018-07-01T05:29:03.782Z,59.10
2018-07-01T05:31:32.187Z,59.00
2018-07-01T05:34:00.590Z,58.80
2018-07-01T05:36:28.953Z,58.30
2018-07-01T05:38:57.286Z,58.70
2018-07-01T05:41:25.939Z,58.10
2018-07-01T05:43:54.394Z,58.70
2018-07-01T05:46:25.079Z,58.50
2018-07-01T05:48:53.555Z,58.70
2018-07-01T05:51:21.887Z,58.40
2018-07-01T05:53:50.271Z,58.20
2018-07-01T05:56:18.803Z,58.40
2018-07-01T05:58:47.873Z,58.30
2018-07-01T06:01:16.198Z,57.90
2018-07-01T06:03:44.797Z,57.20
2018-07-01T06:06:13.254Z,57.10
2018-07-01T06:08:41.902Z,57.10
2018-07-01T06:11:10.466Z,57.50
2018-07-01T06:13:38.850Z,57.00
2018-07-01T06:16:07.214Z,57.30
2018-07-01T06:18:35.889Z,57.60
2018-07-01T06:21:04.294Z,57.20
2018-07-01T06:23:33.193Z,56.60
2018-07-01T06:26:01.772Z,56.40
2018-07-01T06:28:30.463Z,56.20
2018-07-01T06:30:58.886Z,56.40
2018-07-01T06:33:27.277Z,56.30
2018-07-01T06:35:57.539Z,56.20
2018-07-01T06:38:26.082Z,55.60
2018-07-01T06:40:56.091Z,55.30
2018-07-01T06:43:25.209Z,55.70
2018-07-01T06:45:53.683Z,55.70
2018-07-01T06:48:22.115Z,54.50
2018-07-01T06:50:51.219Z,55.30
2018-07-01T06:53:19.964Z,54.80
2018-07-01T06:55:48.343Z,55.00
2018-07-01T06:58:16.710Z,54.60
2018-07-01T07:00:45.491Z,54.10
2018-07-01T07:03:13.988Z,54.30
2018-07-01T07:05:42.983Z,54.00
2018-07-01T07:08:11.547Z,53.50
2018-07-01T07:10:40.430Z,53.40
2018-07-01T07:13:11.776Z,52.80
2018-07-01T07:15:41.212Z,52.40
2018-07-01T07:31:15.422Z,51.60
2018-07-01T07:33:44.006Z,50.30
2018-07-01T07:36:12.488Z,49.50
2018-07-01T07:38:41.470Z,49.00
2018-07-01T07:41:12.272Z,49.10
2018-07-01T07:43:40.872Z,49.20
2018-07-01T07:46:09.354Z,50.30
2018-07-01T07:48:38.354Z,50.10
2018-07-01T07:51:10.829Z,49.40
2018-07-01T07:53:41.191Z,49.30
2018-07-01T07:56:09.967Z,49.60
2018-07-01T07:58:39.071Z,49.60
2018-07-01T08:01:08.471Z,48.50
2018-07-01T08:03:37.729Z,47.60
2018-07-01T08:06:06.585Z,48.30
2018-07-01T08:08:37.080Z,47.10
2018-07-01T08:11:05.904Z,47.50
2018-07-01T08:13:34.355Z,47.50
2018-07-01T08:16:02.888Z,46.20
2018-07-01T08:18:31.722Z,46.70
2018-07-01T08:23:30.025Z,46.00
2018-07-01T08:25:59.254Z,46.00
2018-07-01T08:28:27.895Z,45.30
2018-07-01T08:30:58.555Z,45.10
2018-07-01T08:33:28.095Z,44.60
2018-07-01T08:35:56.594Z,45.40
2018-07-01T08:38:27.515Z,45.00
2018-07-01T08:41:03.152Z,45.40
2018-07-01T08:43:32.324Z,44.80
2018-07-01T08:46:00.808Z,45.60
2018-07-01T08:48:30.245Z,45.30
2018-07-01T08:50:59.322Z,44.90
2018-07-01T08:53:28.118Z,46.40
2018-07-01T08:55:58.394Z,48.20
2018-07-01T08:58:49.253Z,46.00
2018-07-01T09:01:18.241Z,44.80
2018-07-01T09:03:49.090Z,44.60
2018-07-01T09:06:17.911Z,44.00
2018-07-01T09:08:46.379Z,45.10
2018-07-01T09:11:15.038Z,43.80
2018-07-01T09:13:43.735Z,42.40
2018-07-01T09:16:12.433Z,45.00
2018-07-01T09:18:41.352Z,43.40
2018-07-01T09:21:10.259Z,43.30
2018-07-01T09:23:39.326Z,41.80
2018-07-01T09:26:07.827Z,41.30
2018-07-01T09:28:36.396Z,41.70
2018-07-01T09:31:05.411Z,40.90
2018-07-01T09:33:34.152Z,40.90
2018-07-01T09:36:02.618Z,41.30
2018-07-01T09:38:31.068Z,41.40
2018-07-01T09:40:59.489Z,40.40
2018-07-01T09:43:28.262Z,42.40
2018-07-01T09:45:58.960Z,44.40
2018-07-01T09:48:27.741Z,41.90
2018-07-01T09:50:56.357Z,42.50
2018-07-01T09:53:24.789Z,41.80
2018-07-01T09:55:53.211Z,41.60
2018-07-01T09:58:21.662Z,40.20
2018-07-01T10:00:50.098Z,40.90
2018-07-01T10:03:18.584Z,40.70
2018-07-01T10:05:47.164Z,41.60
2018-07-01T10:08:15.626Z,41.60
2018-07-01T10:10:44.446Z,41.30
2018-07-01T10:13:13.590Z,41.10
2018-07-01T10:15:42.050Z,41.00
2018-07-01T10:18:10.922Z,40.00
2018-07-01T10:20:39.432Z,41.50
2018-07-01T10:23:07.998Z,41.90
2018-07-01T10:25:36.576Z,42.20
2018-07-01T10:28:05.434Z,43.70
2018-07-01T10:30:34.131Z,43.90
2018-07-01T10:33:03.069Z,42.60
2018-07-01T10:35:31.584Z,46.30
2018-07-01T10:38:00.612Z,44.40
2018-07-01T10:40:29.223Z,45.10
2018-07-01T10:42:59.368Z,46.30
2018-07-01T10:45:28.162Z,47.10
2018-07-01T10:47:57.333Z,45.40
2018-07-01T10:50:26.561Z,43.30
2018-07-01T10:52:55.338Z,44.60
2018-07-01T10:55:25.232Z,47.10
2018-07-01T10:57:54.773Z,56.60
2018-07-01T11:00:24.877Z,47.00
2018-07-01T11:02:53.468Z,45.80
2018-07-01T11:05:22.091Z,46.00
2018-07-01T11:07:50.792Z,45.00
2018-07-01T11:10:19.651Z,44.40
2018-07-01T11:12:49.074Z,43.30
2018-07-01T11:15:17.514Z,43.40
2018-07-01T11:17:46.206Z,43.20
2018-07-01T11:20:15.004Z,44.40
2018-07-01T11:22:43.927Z,41.50
2018-07-01T11:25:12.837Z,43.40
2018-07-01T11:27:42.119Z,42.90
2018-07-01T11:30:10.737Z,44.00
2018-07-01T11:32:39.333Z,42.70
2018-07-01T11:35:08.057Z,44.70
2018-07-01T11:37:37.124Z,42.90
2018-07-01T11:40:05.840Z,43.80
2018-07-01T11:42:34.284Z,41.70
2018-07-01T11:45:03.663Z,42.70
2018-07-01T11:47:32.198Z,43.40
2018-07-01T11:50:00.995Z,43.90
2018-07-01T11:52:29.916Z,44.70
2018-07-01T11:54:58.693Z,44.70
2018-07-01T11:57:27.201Z,41.40
2018-07-01T11:59:55.691Z,42.00
2018-07-01T12:02:24.270Z,43.30
2018-07-01T12:05:16.209Z,44.90
2018-07-01T12:07:21.929Z,44.60
2018-07-01T12:09:50.530Z,43.10
2018-07-01T12:12:19.093Z,39.60
2018-07-01T12:14:47.634Z,40.70
2018-07-01T12:17:16.136Z,39.30
2018-07-01T12:19:44.622Z,38.80
2018-07-01T12:22:13.331Z,38.90
2018-07-01T12:24:42.171Z,39.40
2018-07-01T12:27:10.733Z,39.30
2018-07-01T12:29:39.768Z,38.00
2018-07-01T12:32:08.617Z,37.20
2018-07-01T12:34:37.130Z,37.30
2018-07-01T12:37:06.607Z,36.80
2018-07-01T12:39:35.646Z,35.10
2018-07-01T12:42:04.875Z,35.50
2018-07-01T12:44:33.556Z,36.20
2018-07-01T12:47:02.326Z,35.60
2018-07-01T13:02:20.995Z,36.80
2018-07-01T13:04:50.619Z,36.50
2018-07-01T13:07:19.546Z,34.30
2018-07-01T13:09:48.224Z,35.60
2018-07-01T13:12:17.027Z,34.60
2018-07-01T13:14:46.248Z,34.00
2018-07-01T13:17:15.038Z,34.40
2018-07-01T13:19:43.477Z,34.70
2018-07-01T13:22:12.874Z,34.80
2018-07-01T13:24:41.720Z,35.00
2018-07-01T13:27:10.536Z,34.80
2018-07-01T13:29:39.290Z,32.90
2018-07-01T13:32:09.758Z,33.50
2018-07-01T13:34:38.243Z,33.00
2018-07-01T13:37:07.368Z,32.60
2018-07-01T13:39:36.412Z,32.00
2018-07-01T13:42:05.134Z,30.80
2018-07-01T13:44:34.161Z,29.80
2018-07-01T13:47:03.191Z,29.70
2018-07-01T13:49:31.693Z,30.10
2018-07-01T13:52:03.981Z,30.40
2018-07-01T13:54:32.768Z,30.70
2018-07-01T13:57:01.697Z,29.90
2018-07-01T13:59:30.847Z,29.30
2018-07-01T14:01:59.604Z,29.40
2018-07-01T14:04:28.428Z,30.20
2018-07-01T14:06:57.568Z,29.60
2018-07-01T14:09:26.449Z,29.30
2018-07-01T14:11:55.289Z,29.50
2018-07-01T14:14:24.020Z,30.50
2018-07-01T14:16:52.745Z,29.90
2018-07-01T14:19:21.863Z,28.90
2018-07-01T14:21:52.492Z,28.80
2018-07-01T14:24:21.186Z,27.80
2018-07-01T14:26:50.225Z,27.80
2018-07-01T14:29:19.252Z,28.60
2018-07-01T14:31:48.572Z,28.90
2018-07-01T14:34:17.720Z,27.00
2018-07-01T14:36:46.474Z,26.30
2018-07-01T14:39:17.946Z,25.90
2018-07-01T14:41:46.618Z,26.30
2018-07-01T14:44:15.349Z,26.20
2018-07-01T14:46:46.871Z,26.00
2018-07-01T14:49:15.866Z,26.20
2018-07-01T14:51:44.979Z,25.90
2018-07-01T14:54:13.622Z,26.40
2018-07-01T14:56:42.371Z,25.70
2018-07-01T14:59:11.069Z,25.90
2018-07-01T15:01:39.557Z,25.70
2018-07-01T15:04:08.945Z,26.30
2018-07-01T15:06:37.707Z,27.40
2018-07-01T15:09:08.881Z,27.20
2018-07-01T15:11:37.740Z,27.10
2018-07-01T15:14:09.641Z,27.70
2018-07-01T15:16:45.580Z,27.50
2018-07-01T15:19:14.714Z,27.50
2018-07-01T15:21:43.506Z,27.60
2018-07-01T15:24:16.628Z,27.90
2018-07-01T15:26:46.081Z,27.80
2018-07-01T15:29:29.968Z,27.80
2018-07-01T15:31:59.324Z,28.20
2018-07-01T15:34:29.443Z,28.40
2018-07-01T15:36:58.544Z,30.00
2018-07-01T15:39:28.174Z,31.20
2018-07-01T15:41:57.311Z,30.90
2018-07-01T15:44:26.667Z,31.40
2018-07-01T15:46:56.459Z,32.70
2018-07-01T15:49:25.637Z,32.10
2018-07-01T15:51:54.972Z,30.70
2018-07-01T15:54:24.054Z,31.40
2018-07-01T15:56:53.552Z,30.90
2018-07-01T15:59:22.532Z,30.50
2018-07-01T16:01:53.849Z,30.80
2018-07-01T16:04:24.215Z,32.60
2018-07-01T16:06:53.347Z,33.10
2018-07-01T16:09:22.837Z,32.30
2018-07-01T16:11:53.024Z,33.10
2018-07-01T16:14:22.473Z,32.60
2018-07-01T16:16:51.423Z,33.50
2018-07-01T16:19:20.249Z,34.20
2018-07-01T16:21:49.933Z,33.30
2018-07-01T16:24:18.811Z,34.40
2018-07-01T16:26:52.764Z,33.50
2018-07-01T16:29:21.667Z,33.80
2018-07-01T16:31:51.924Z,33.80
2018-07-01T16:34:21.944Z,33.80
2018-07-01T16:36:50.947Z,33.90
2018-07-01T16:39:20.448Z,33.80
2018-07-01T16:44:18.736Z,31.40
2018-07-01T16:46:47.557Z,32.20
2018-07-01T16:49:16.822Z,33.00
2018-07-01T16:51:45.664Z,33.40
2018-07-01T16:54:14.496Z,33.20
2018-07-01T16:56:43.396Z,34.20
2018-07-01T16:59:12.394Z,34.30
2018-07-01T17:01:42.754Z,35.20
2018-07-01T17:04:17.917Z,35.20
2018-07-01T17:06:47.016Z,36.30
2018-07-01T17:09:17.593Z,34.40
2018-07-01T17:11:46.788Z,34.50
2018-07-01T17:14:15.617Z,34.50
2018-07-01T17:16:44.338Z,34.10
2018-07-01T17:19:14.122Z,33.90
2018-07-01T17:21:43.151Z,33.70
2018-07-01T17:24:12.256Z,34.70
2018-07-01T17:26:41.369Z,34.80
2018-07-01T17:29:10.958Z,34.60
2018-07-01T17:31:44.759Z,34.50
2018-07-01T17:34:13.901Z,33.50
2018-07-01T17:36:42.726Z,33.30
2018-07-01T17:39:11.788Z,32.00
2018-07-01T17:41:41.460Z,31.10
2018-07-01T17:44:10.868Z,31.50
2018-07-01T17:46:39.713Z,32.00
2018-07-01T17:49:09.075Z,32.70
2018-07-01T17:51:38.218Z,33.40
2018-07-01T17:54:07.768Z,32.80
2018-07-01T17:56:37.848Z,32.80
2018-07-01T17:59:07.450Z,32.00
2018-07-01T18:01:36.776Z,31.90
2018-07-01T18:04:06.783Z,31.00
2018-07-01T18:06:35.533Z,29.80
2018-07-01T18:09:05.933Z,28.90
2018-07-01T18:11:34.940Z,29.10
2018-07-01T18:14:04.080Z,29.00
2018-07-01T18:16:33.884Z,29.20
2018-07-01T18:19:03.209Z,29.90
2018-07-01T18:21:32.430Z,29.90
2018-07-01T18:24:27.530Z,30.00
2018-07-01T18:26:30.777Z,30.70
2018-07-01T18:29:08.189Z,31.40
2018-07-01T18:31:30.963Z,32.10
2018-07-01T18:33:59.865Z,33.10
2018-07-01T18:36:28.995Z,33.80
2018-07-01T18:38:59.685Z,34.30
2018-07-01T18:41:28.525Z,35.30
2018-07-01T18:43:57.541Z,35.90
2018-07-01T18:46:26.847Z,36.60
2018-07-01T18:48:55.898Z,38.00
2018-07-01T18:51:24.618Z,38.00
2018-07-01T18:53:53.643Z,39.10
2018-07-01T18:56:22.995Z,39.70
2018-07-01T18:58:51.561Z,40.10
2018-07-01T19:01:20.245Z,41.60
2018-07-01T19:03:48.874Z,41.50
2018-07-01T19:06:17.606Z,41.60
2018-07-01T19:08:46.444Z,41.80
2018-07-01T19:11:17.951Z,42.30
2018-07-01T19:13:46.717Z,42.80
2018-07-01T19:16:15.466Z,43.00
2018-07-01T19:18:44.057Z,43.50
2018-07-01T19:21:12.930Z,43.90
2018-07-01T19:23:41.657Z,43.80
2018-07-01T19:26:10.729Z,44.30
2018-07-01T19:28:40.402Z,44.60
2018-07-01T19:31:09.856Z,44.40
2018-07-01T19:33:40.056Z,45.60
2018-07-01T19:36:08.873Z,45.00
2018-07-01T19:38:38.047Z,45.00
2018-07-01T19:41:06.820Z,45.00
2018-07-01T19:43:35.671Z,45.30
2018-07-01T19:46:09.716Z,46.20
2018-07-01T19:48:38.942Z,46.90
2018-07-01T19:51:07.460Z,46.30
2018-07-01T19:53:35.891Z,46.60
2018-07-01T19:56:04.748Z,47.10
2018-07-01T19:58:33.199Z,47.00
2018-07-01T20:01:03.210Z,47.30
2018-07-01T20:03:31.626Z,46.80
2018-07-01T20:06:00.262Z,47.30
2018-07-01T20:08:31.837Z,47.50
2018-07-01T20:11:02.458Z,47.70
2018-07-01T20:13:31.229Z,47.90
2018-07-01T20:15:59.811Z,48.60
2018-07-01T20:18:28.778Z,48.60
2018-07-01T20:20:59.850Z,48.80
2018-07-01T20:23:34.450Z,48.40
2018-07-01T20:26:04.961Z,48.80
2018-07-01T20:28:40.910Z,48.80
2018-07-01T20:31:09.802Z,49.30
2018-07-01T20:33:39.780Z,49.00
2018-07-01T20:36:10.344Z,49.30
2018-07-01T20:38:39.384Z,49.40
2018-07-01T20:41:09.348Z,49.00
2018-07-01T20:43:43.823Z,49.50
2018-07-01T20:46:12.661Z,49.90
2018-07-01T20:48:41.904Z,49.80
2018-07-01T20:51:11.291Z,49.80
2018-07-01T20:53:40.801Z,50.20
2018-07-01T20:56:09.659Z,50.20
2018-07-01T20:58:38.351Z,49.90
2018-07-01T21:01:10.046Z,49.80
2018-07-01T21:03:41.683Z,50.90
2018-07-01T21:06:14.039Z,51.50
2018-07-01T21:08:42.895Z,51.20
2018-07-01T21:11:11.654Z,51.00
2018-07-01T21:13:40.258Z,50.80
2018-07-01T21:16:09.040Z,50.50
2018-07-01T21:18:38.212Z,51.10
2018-07-01T21:21:06.778Z,51.00
2018-07-01T21:23:35.421Z,50.80
2018-07-01T21:26:03.871Z,51.40
2018-07-01T21:28:32.711Z,51.10
2018-07-01T21:31:01.479Z,50.60
2018-07-01T21:33:29.999Z,51.00
2018-07-01T21:35:58.791Z,50.50
2018-07-01T21:38:27.537Z,50.90
2018-07-01T21:40:56.511Z,51.10
2018-07-01T21:43:25.471Z,51.00
2018-07-01T21:45:54.223Z,51.40
2018-07-01T21:48:22.955Z,51.10
2018-07-01T21:50:51.841Z,52.00
2018-07-01T21:53:20.484Z,51.70
2018-07-01T21:55:49.294Z,52.10
2018-07-01T21:58:18.051Z,52.00
2018-07-01T22:00:47.819Z,52.20
2018-07-01T22:03:16.562Z,52.10
2018-07-01T22:05:45.430Z,52.20
2018-07-01T22:08:14.435Z,53.00
2018-07-01T22:10:54.443Z,53.20
2018-07-01T22:14:36.781Z,52.50
2018-07-01T22:17:07.251Z,52.70
2018-07-01T22:19:40.400Z,52.80
2018-07-01T22:22:08.958Z,53.00
2018-07-01T22:24:38.488Z,53.10
2018-07-01T22:27:07.808Z,53.00
2018-07-01T22:29:36.707Z,53.10
2018-07-01T22:32:05.334Z,53.30
2018-07-01T22:34:33.925Z,53.20
2018-07-01T22:37:02.673Z,53.20
2018-07-01T22:39:31.728Z,53.60
2018-07-01T22:42:01.810Z,54.10
2018-07-01T22:44:30.903Z,53.60
2018-07-01T22:46:59.633Z,54.00
2018-07-01T22:49:28.237Z,53.70
2018-07-01T22:51:56.933Z,53.80
2018-07-01T22:54:25.711Z,54.10
2018-07-01T22:56:54.414Z,54.20
2018-07-01T22:59:23.231Z,55.00
2018-07-01T23:03:05.573Z,55.70
2018-07-01T23:05:34.323Z,55.80
2018-07-01T23:08:02.872Z,55.60
2018-07-01T23:10:31.988Z,55.80
2018-07-01T23:13:01.166Z,55.60
2018-07-01T23:15:30.047Z,55.80
2018-07-01T23:17:58.574Z,56.10
2018-07-01T23:22:55.594Z,56.40
2018-07-01T23:25:25.277Z,55.90
2018-07-01T23:27:53.960Z,55.80
2018-07-01T23:30:22.580Z,56.60
2018-07-01T23:32:51.349Z,56.80
2018-07-01T23:37:48.205Z,56.50
2018-07-01T23:40:16.945Z,56.20
2018-07-01T23:42:45.557Z,56.10
2018-07-01T23:45:15.200Z,56.50
2018-07-01T23:47:44.129Z,55.90
2018-07-01T23:50:12.789Z,56.80
2018-07-01T23:52:41.471Z,56.90
2018-07-01T23:55:10.433Z,56.60
2018-07-01T23:57:39.046Z,56.40
